sensor_id;sensor_type;location;lat;lon;timestamp;P1;durP1;ratioP1;P2;durP2;ratioP2
27999;SDS011;15328;50.860;10.562;2024-02-28T00:00:35;31.70;;;15.68;;
27999;SDS011;15328;50.860;10.562;2024-02-28T00:05:35;26.33;;;14.05;;
27999;SDS011;15328;50.860;10.562;2024-02-28T00:10:36;27.37;;;14.23;;
27999;SDS011;15328;50.860;10.562;2024-02-28T00:15:36;27.63;;;14.52;;
27999;SDS011;15328;50.860;10.562;2024-02-28T00:20:36;27.75;;;14.60;;
27999;SDS011;15328;50.860;10.562;2024-02-28T00:25:37;30.42;;;16.02;;
27999;SDS011;15328;50.860;10.562;2024-02-28T00:30:37;32.72;;;15.85;;
27999;SDS011;15328;50.860;10.562;2024-02-28T00:35:39;29.97;;;15.57;;
27999;SDS011;15328;50.860;10.562;2024-02-28T00:40:39;27.55;;;14.45;;
27999;SDS011;15328;50.860;10.562;2024-02-28T00:45:40;25.90;;;13.65;;
27999;SDS011;15328;50.860;10.562;2024-02-28T00:50:40;32.42;;;16.80;;
27999;SDS011;15328;50.860;10.562;2024-02-28T00:55:40;28.73;;;15.13;;
27999;SDS011;15328;50.860;10.562;2024-02-28T01:00:41;29.92;;;15.65;;
27999;SDS011;15328;50.860;10.562;2024-02-28T01:05:41;30.95;;;15.50;;
27999;SDS011;15328;50.860;10.562;2024-02-28T01:10:42;28.42;;;14.88;;
27999;SDS011;15328;50.860;10.562;2024-02-28T01:15:42;27.08;;;13.43;;
27999;SDS011;15328;50.860;10.562;2024-02-28T01:20:43;26.67;;;14.60;;
27999;SDS011;15328;50.860;10.562;2024-02-28T01:25:43;32.97;;;16.40;;
27999;SDS011;15328;50.860;10.562;2024-02-28T01:30:43;33.33;;;16.60;;
27999;SDS011;15328;50.860;10.562;2024-02-28T01:35:43;30.13;;;14.95;;
27999;SDS011;15328;50.860;10.562;2024-02-28T01:40:45;33.50;;;15.50;;
27999;SDS011;15328;50.860;10.562;2024-02-28T01:45:46;27.48;;;14.00;;
27999;SDS011;15328;50.860;10.562;2024-02-28T01:50:46;31.97;;;14.73;;
27999;SDS011;15328;50.860;10.562;2024-02-28T01:55:47;25.33;;;13.07;;
27999;SDS011;15328;50.860;10.562;2024-02-28T02:00:48;29.45;;;13.80;;
27999;SDS011;15328;50.860;10.562;2024-02-28T02:05:49;22.63;;;11.70;;
27999;SDS011;15328;50.860;10.562;2024-02-28T02:10:49;25.93;;;11.90;;
27999;SDS011;15328;50.860;10.562;2024-02-28T02:15:50;19.47;;;9.70;;
27999;SDS011;15328;50.860;10.562;2024-02-28T02:20:50;21.27;;;10.93;;
27999;SDS011;15328;50.860;10.562;2024-02-28T02:25:54;19.50;;;10.45;;
27999;SDS011;15328;50.860;10.562;2024-02-28T02:30:55;16.48;;;9.38;;
27999;SDS011;15328;50.860;10.562;2024-02-28T02:35:55;18.58;;;9.82;;
27999;SDS011;15328;50.860;10.562;2024-02-28T02:40:55;19.00;;;10.17;;
27999;SDS011;15328;50.860;10.562;2024-02-28T02:45:56;21.70;;;10.68;;
27999;SDS011;15328;50.860;10.562;2024-02-28T02:50:56;18.70;;;9.37;;
27999;SDS011;15328;50.860;10.562;2024-02-28T02:55:56;20.03;;;11.00;;
27999;SDS011;15328;50.860;10.562;2024-02-28T03:00:57;13.25;;;8.20;;
27999;SDS011;15328;50.860;10.562;2024-02-28T03:05:58;14.98;;;8.43;;
27999;SDS011;15328;50.860;10.562;2024-02-28T03:10:58;19.35;;;10.70;;
27999;SDS011;15328;50.860;10.562;2024-02-28T03:15:58;19.52;;;10.48;;
27999;SDS011;15328;50.860;10.562;2024-02-28T03:20:59;18.38;;;10.30;;
27999;SDS011;15328;50.860;10.562;2024-02-28T03:25:59;14.90;;;8.32;;
27999;SDS011;15328;50.860;10.562;2024-02-28T03:31:00;13.85;;;8.15;;
27999;SDS011;15328;50.860;10.562;2024-02-28T03:36:00;13.37;;;8.13;;
27999;SDS011;15328;50.860;10.562;2024-02-28T03:41:01;10.88;;;6.78;;
27999;SDS011;15328;50.860;10.562;2024-02-28T03:46:02;10.45;;;6.50;;
27999;SDS011;15328;50.860;10.562;2024-02-28T03:51:03;10.15;;;6.15;;
27999;SDS011;15328;50.860;10.562;2024-02-28T03:56:03;10.80;;;7.07;;
27999;SDS011;15328;50.860;10.562;2024-02-28T04:01:04;11.07;;;7.22;;
27999;SDS011;15328;50.860;10.562;2024-02-28T04:06:04;11.90;;;7.63;;
27999;SDS011;15328;50.860;10.562;2024-02-28T04:11:04;11.68;;;6.82;;
27999;SDS011;15328;50.860;10.562;2024-02-28T04:16:05;12.10;;;7.13;;
27999;SDS011;15328;50.860;10.562;2024-02-28T04:21:05;12.27;;;7.72;;
27999;SDS011;15328;50.860;10.562;2024-02-28T04:26:05;12.73;;;7.47;;
27999;SDS011;15328;50.860;10.562;2024-02-28T04:31:06;12.35;;;7.93;;
27999;SDS011;15328;50.860;10.562;2024-02-28T04:36:07;13.48;;;8.75;;
27999;SDS011;15328;50.860;10.562;2024-02-28T04:41:07;12.60;;;8.57;;
27999;SDS011;15328;50.860;10.562;2024-02-28T04:46:07;13.25;;;7.30;;
27999;SDS011;15328;50.860;10.562;2024-02-28T04:51:08;12.80;;;7.82;;
27999;SDS011;15328;50.860;10.562;2024-02-28T04:56:08;16.48;;;8.20;;
27999;SDS011;15328;50.860;10.562;2024-02-28T05:01:08;14.30;;;8.43;;
27999;SDS011;15328;50.860;10.562;2024-02-28T05:06:09;14.90;;;8.65;;
27999;SDS011;15328;50.860;10.562;2024-02-28T05:11:09;13.73;;;8.38;;
27999;SDS011;15328;50.860;10.562;2024-02-28T05:16:15;15.00;;;8.87;;
27999;SDS011;15328;50.860;10.562;2024-02-28T05:21:16;13.45;;;8.00;;
27999;SDS011;15328;50.860;10.562;2024-02-28T05:26:16;15.60;;;8.90;;
27999;SDS011;15328;50.860;10.562;2024-02-28T05:31:23;17.60;;;9.98;;
27999;SDS011;15328;50.860;10.562;2024-02-28T05:36:25;15.40;;;9.38;;
27999;SDS011;15328;50.860;10.562;2024-02-28T05:41:27;16.55;;;8.80;;
27999;SDS011;15328;50.860;10.562;2024-02-28T05:46:28;12.55;;;7.22;;
27999;SDS011;15328;50.860;10.562;2024-02-28T05:51:29;14.13;;;7.88;;
27999;SDS011;15328;50.860;10.562;2024-02-28T05:56:29;12.82;;;7.45;;
27999;SDS011;15328;50.860;10.562;2024-02-28T06:01:30;12.95;;;7.45;;
27999;SDS011;15328;50.860;10.562;2024-02-28T06:06:30;12.73;;;7.40;;
27999;SDS011;15328;50.860;10.562;2024-02-28T06:11:30;11.03;;;6.27;;
27999;SDS011;15328;50.860;10.562;2024-02-28T06:16:31;11.52;;;6.47;;
27999;SDS011;15328;50.860;10.562;2024-02-28T06:21:31;14.80;;;8.43;;
27999;SDS011;15328;50.860;10.562;2024-02-28T06:26:31;13.18;;;7.80;;
27999;SDS011;15328;50.860;10.562;2024-02-28T06:31:32;13.20;;;7.25;;
27999;SDS011;15328;50.860;10.562;2024-02-28T06:36:32;12.45;;;6.82;;
27999;SDS011;15328;50.860;10.562;2024-02-28T06:41:33;11.40;;;6.97;;
27999;SDS011;15328;50.860;10.562;2024-02-28T06:46:33;11.23;;;6.28;;
27999;SDS011;15328;50.860;10.562;2024-02-28T06:51:34;10.02;;;5.80;;
27999;SDS011;15328;50.860;10.562;2024-02-28T06:56:34;11.03;;;5.63;;
27999;SDS011;15328;50.860;10.562;2024-02-28T07:01:34;10.82;;;5.40;;
27999;SDS011;15328;50.860;10.562;2024-02-28T07:06:35;11.40;;;6.30;;
27999;SDS011;15328;50.860;10.562;2024-02-28T07:11:35;12.93;;;6.53;;
27999;SDS011;15328;50.860;10.562;2024-02-28T07:16:35;10.03;;;6.00;;
27999;SDS011;15328;50.860;10.562;2024-02-28T07:21:35;9.60;;;5.10;;
27999;SDS011;15328;50.860;10.562;2024-02-28T07:26:37;8.93;;;4.90;;
27999;SDS011;15328;50.860;10.562;2024-02-28T07:31:38;9.23;;;5.20;;
27999;SDS011;15328;50.860;10.562;2024-02-28T07:36:38;10.07;;;5.68;;
27999;SDS011;15328;50.860;10.562;2024-02-28T07:41:38;9.70;;;5.45;;
27999;SDS011;15328;50.860;10.562;2024-02-28T07:46:40;7.07;;;3.90;;
27999;SDS011;15328;50.860;10.562;2024-02-28T07:51:41;6.47;;;3.80;;
27999;SDS011;15328;50.860;10.562;2024-02-28T07:56:41;9.68;;;5.88;;
27999;SDS011;15328;50.860;10.562;2024-02-28T08:01:42;9.43;;;6.40;;
27999;SDS011;15328;50.860;10.562;2024-02-28T08:06:42;8.90;;;5.70;;
27999;SDS011;15328;50.860;10.562;2024-02-28T08:11:43;11.18;;;6.97;;
27999;SDS011;15328;50.860;10.562;2024-02-28T08:16:43;12.40;;;7.68;;
27999;SDS011;15328;50.860;10.562;2024-02-28T08:21:43;12.73;;;7.47;;
27999;SDS011;15328;50.860;10.562;2024-02-28T08:26:44;12.48;;;7.85;;
27999;SDS011;15328;50.860;10.562;2024-02-28T08:31:44;13.20;;;8.47;;
27999;SDS011;15328;50.860;10.562;2024-02-28T08:36:45;12.93;;;8.00;;
27999;SDS011;15328;50.860;10.562;2024-02-28T08:41:45;14.13;;;7.80;;
27999;SDS011;15328;50.860;10.562;2024-02-28T08:46:46;10.65;;;7.10;;
27999;SDS011;15328;50.860;10.562;2024-02-28T08:51:48;11.50;;;7.50;;
27999;SDS011;15328;50.860;10.562;2024-02-28T08:56:48;14.07;;;8.00;;
27999;SDS011;15328;50.860;10.562;2024-02-28T09:01:48;14.18;;;8.02;;
27999;SDS011;15328;50.860;10.562;2024-02-28T09:06:49;13.07;;;8.52;;
27999;SDS011;15328;50.860;10.562;2024-02-28T09:11:49;10.80;;;7.40;;
27999;SDS011;15328;50.860;10.562;2024-02-28T09:16:49;11.73;;;7.82;;
27999;SDS011;15328;50.860;10.562;2024-02-28T09:21:50;10.87;;;7.57;;
27999;SDS011;15328;50.860;10.562;2024-02-28T09:26:50;11.57;;;7.80;;
27999;SDS011;15328;50.860;10.562;2024-02-28T09:31:51;10.60;;;7.47;;
27999;SDS011;15328;50.860;10.562;2024-02-28T09:36:51;11.95;;;7.70;;
27999;SDS011;15328;50.860;10.562;2024-02-28T09:41:52;11.27;;;8.18;;
27999;SDS011;15328;50.860;10.562;2024-02-28T09:46:52;13.23;;;8.30;;
27999;SDS011;15328;50.860;10.562;2024-02-28T09:51:53;12.10;;;7.97;;
27999;SDS011;15328;50.860;10.562;2024-02-28T09:56:54;11.57;;;8.40;;
27999;SDS011;15328;50.860;10.562;2024-02-28T10:01:58;8.88;;;6.38;;
27999;SDS011;15328;50.860;10.562;2024-02-28T10:07:09;4.75;;;3.63;;
27999;SDS011;15328;50.860;10.562;2024-02-28T10:12:14;6.35;;;4.32;;
27999;SDS011;15328;50.860;10.562;2024-02-28T10:17:14;4.03;;;2.90;;
27999;SDS011;15328;50.860;10.562;2024-02-28T10:22:15;7.05;;;3.92;;
27999;SDS011;15328;50.860;10.562;2024-02-28T10:27:16;5.80;;;4.13;;
27999;SDS011;15328;50.860;10.562;2024-02-28T10:32:17;7.15;;;4.40;;
27999;SDS011;15328;50.860;10.562;2024-02-28T10:37:17;8.27;;;4.63;;
27999;SDS011;15328;50.860;10.562;2024-02-28T10:42:18;5.78;;;3.22;;
27999;SDS011;15328;50.860;10.562;2024-02-28T10:47:22;6.95;;;4.53;;
27999;SDS011;15328;50.860;10.562;2024-02-28T10:52:23;5.50;;;4.38;;
27999;SDS011;15328;50.860;10.562;2024-02-28T10:57:25;7.65;;;4.65;;
27999;SDS011;15328;50.860;10.562;2024-02-28T11:02:26;5.80;;;4.13;;
27999;SDS011;15328;50.860;10.562;2024-02-28T11:07:27;7.90;;;4.82;;
27999;SDS011;15328;50.860;10.562;2024-02-28T11:12:28;6.78;;;4.22;;
27999;SDS011;15328;50.860;10.562;2024-02-28T11:17:29;8.95;;;5.53;;
27999;SDS011;15328;50.860;10.562;2024-02-28T11:22:31;8.93;;;5.10;;
27999;SDS011;15328;50.860;10.562;2024-02-28T11:27:33;7.35;;;5.50;;
27999;SDS011;15328;50.860;10.562;2024-02-28T11:32:33;6.88;;;4.53;;
27999;SDS011;15328;50.860;10.562;2024-02-28T11:37:34;6.40;;;3.90;;
27999;SDS011;15328;50.860;10.562;2024-02-28T11:42:34;5.78;;;4.03;;
27999;SDS011;15328;50.860;10.562;2024-02-28T11:47:35;6.40;;;3.47;;
27999;SDS011;15328;50.860;10.562;2024-02-28T11:52:35;5.05;;;3.35;;
27999;SDS011;15328;50.860;10.562;2024-02-28T11:57:36;6.07;;;2.97;;
27999;SDS011;15328;50.860;10.562;2024-02-28T12:02:37;7.43;;;3.17;;
27999;SDS011;15328;50.860;10.562;2024-02-28T12:07:37;4.63;;;3.30;;
27999;SDS011;15328;50.860;10.562;2024-02-28T12:12:41;3.78;;;2.33;;
27999;SDS011;15328;50.860;10.562;2024-02-28T12:17:42;4.13;;;2.58;;
27999;SDS011;15328;50.860;10.562;2024-02-28T12:22:42;4.43;;;2.70;;
27999;SDS011;15328;50.860;10.562;2024-02-28T12:27:43;4.77;;;2.70;;
27999;SDS011;15328;50.860;10.562;2024-02-28T12:32:43;4.53;;;3.53;;
27999;SDS011;15328;50.860;10.562;2024-02-28T12:37:43;5.10;;;3.47;;
27999;SDS011;15328;50.860;10.562;2024-02-28T12:42:44;6.10;;;3.15;;
27999;SDS011;15328;50.860;10.562;2024-02-28T12:47:44;5.30;;;4.20;;
27999;SDS011;15328;50.860;10.562;2024-02-28T12:52:44;6.47;;;4.60;;
27999;SDS011;15328;50.860;10.562;2024-02-28T12:57:45;8.50;;;5.25;;
27999;SDS011;15328;50.860;10.562;2024-02-28T13:02:45;7.05;;;4.38;;
27999;SDS011;15328;50.860;10.562;2024-02-28T13:07:45;6.73;;;4.70;;
27999;SDS011;15328;50.860;10.562;2024-02-28T13:12:46;6.53;;;4.70;;
27999;SDS011;15328;50.860;10.562;2024-02-28T13:17:46;7.68;;;5.22;;
27999;SDS011;15328;50.860;10.562;2024-02-28T13:22:49;7.38;;;5.10;;
27999;SDS011;15328;50.860;10.562;2024-02-28T13:27:50;8.63;;;5.53;;
27999;SDS011;15328;50.860;10.562;2024-02-28T13:32:51;7.80;;;5.37;;
27999;SDS011;15328;50.860;10.562;2024-02-28T13:37:51;7.43;;;4.97;;
27999;SDS011;15328;50.860;10.562;2024-02-28T13:42:53;7.88;;;5.40;;
27999;SDS011;15328;50.860;10.562;2024-02-28T13:47:53;5.77;;;4.07;;
27999;SDS011;15328;50.860;10.562;2024-02-28T13:52:53;6.70;;;4.73;;
27999;SDS011;15328;50.860;10.562;2024-02-28T13:57:54;5.90;;;4.17;;
27999;SDS011;15328;50.860;10.562;2024-02-28T14:02:54;4.43;;;2.97;;
27999;SDS011;15328;50.860;10.562;2024-02-28T14:07:55;4.70;;;3.03;;
27999;SDS011;15328;50.860;10.562;2024-02-28T14:12:55;2.58;;;1.90;;
27999;SDS011;15328;50.860;10.562;2024-02-28T14:17:56;3.05;;;1.90;;
27999;SDS011;15328;50.860;10.562;2024-02-28T14:22:56;3.07;;;1.80;;
27999;SDS011;15328;50.860;10.562;2024-02-28T14:27:58;2.92;;;2.15;;
27999;SDS011;15328;50.860;10.562;2024-02-28T14:32:59;2.78;;;2.08;;
27999;SDS011;15328;50.860;10.562;2024-02-28T14:37:59;3.38;;;2.00;;
27999;SDS011;15328;50.860;10.562;2024-02-28T14:42:59;4.43;;;2.03;;
27999;SDS011;15328;50.860;10.562;2024-02-28T14:47:59;3.65;;;2.17;;
27999;SDS011;15328;50.860;10.562;2024-02-28T14:53:00;3.63;;;2.38;;
27999;SDS011;15328;50.860;10.562;2024-02-28T14:58:00;2.90;;;1.90;;
27999;SDS011;15328;50.860;10.562;2024-02-28T15:03:01;4.97;;;2.63;;
27999;SDS011;15328;50.860;10.562;2024-02-28T15:08:01;3.15;;;2.08;;
27999;SDS011;15328;50.860;10.562;2024-02-28T15:13:02;4.15;;;2.05;;
27999;SDS011;15328;50.860;10.562;2024-02-28T15:18:02;3.47;;;1.90;;
27999;SDS011;15328;50.860;10.562;2024-02-28T15:23:03;3.10;;;1.95;;
27999;SDS011;15328;50.860;10.562;2024-02-28T15:28:04;2.40;;;1.50;;
27999;SDS011;15328;50.860;10.562;2024-02-28T15:33:05;2.75;;;1.67;;
27999;SDS011;15328;50.860;10.562;2024-02-28T15:38:05;2.20;;;1.55;;
27999;SDS011;15328;50.860;10.562;2024-02-28T15:43:06;2.97;;;1.80;;
27999;SDS011;15328;50.860;10.562;2024-02-28T15:48:06;2.50;;;1.63;;
27999;SDS011;15328;50.860;10.562;2024-02-28T15:53:07;3.28;;;1.48;;
27999;SDS011;15328;50.860;10.562;2024-02-28T15:58:07;3.13;;;1.67;;
27999;SDS011;15328;50.860;10.562;2024-02-28T16:03:07;2.60;;;1.63;;
27999;SDS011;15328;50.860;10.562;2024-02-28T16:08:08;1.92;;;1.17;;
27999;SDS011;15328;50.860;10.562;2024-02-28T16:13:08;6.50;;;3.67;;
27999;SDS011;15328;50.860;10.562;2024-02-28T16:18:09;7.28;;;4.30;;
27999;SDS011;15328;50.860;10.562;2024-02-28T16:23:11;5.80;;;3.80;;
27999;SDS011;15328;50.860;10.562;2024-02-28T16:28:12;4.43;;;3.20;;
27999;SDS011;15328;50.860;10.562;2024-02-28T16:33:13;3.83;;;2.25;;
27999;SDS011;15328;50.860;10.562;2024-02-28T16:38:14;2.72;;;1.48;;
27999;SDS011;15328;50.860;10.562;2024-02-28T16:43:14;3.33;;;1.98;;
27999;SDS011;15328;50.860;10.562;2024-02-28T16:48:14;5.50;;;2.08;;
27999;SDS011;15328;50.860;10.562;2024-02-28T16:53:15;5.70;;;2.67;;
27999;SDS011;15328;50.860;10.562;2024-02-28T16:58:15;4.60;;;2.27;;
27999;SDS011;15328;50.860;10.562;2024-02-28T17:03:15;3.40;;;1.40;;
27999;SDS011;15328;50.860;10.562;2024-02-28T17:08:16;1.77;;;1.10;;
27999;SDS011;15328;50.860;10.562;2024-02-28T17:13:17;2.20;;;1.30;;
27999;SDS011;15328;50.860;10.562;2024-02-28T17:18:18;2.50;;;1.40;;
27999;SDS011;15328;50.860;10.562;2024-02-28T17:23:20;2.67;;;1.63;;
27999;SDS011;15328;50.860;10.562;2024-02-28T17:28:21;3.03;;;1.92;;
27999;SDS011;15328;50.860;10.562;2024-02-28T17:33:21;15.65;;;6.28;;
27999;SDS011;15328;50.860;10.562;2024-02-28T17:38:24;12.70;;;6.63;;
27999;SDS011;15328;50.860;10.562;2024-02-28T17:43:24;7.37;;;4.20;;
27999;SDS011;15328;50.860;10.562;2024-02-28T17:48:25;4.68;;;2.85;;
27999;SDS011;15328;50.860;10.562;2024-02-28T17:53:28;4.03;;;2.35;;
27999;SDS011;15328;50.860;10.562;2024-02-28T17:58:28;3.25;;;2.40;;
27999;SDS011;15328;50.860;10.562;2024-02-28T18:03:29;4.40;;;2.92;;
27999;SDS011;15328;50.860;10.562;2024-02-28T18:08:32;4.93;;;2.78;;
27999;SDS011;15328;50.860;10.562;2024-02-28T18:13:34;4.43;;;2.65;;
27999;SDS011;15328;50.860;10.562;2024-02-28T18:18:34;5.40;;;3.50;;
27999;SDS011;15328;50.860;10.562;2024-02-28T18:23:35;5.30;;;3.08;;
27999;SDS011;15328;50.860;10.562;2024-02-28T18:28:35;5.13;;;3.10;;
27999;SDS011;15328;50.860;10.562;2024-02-28T18:33:38;5.88;;;3.28;;
27999;SDS011;15328;50.860;10.562;2024-02-28T18:38:38;6.65;;;3.22;;
27999;SDS011;15328;50.860;10.562;2024-02-28T18:43:41;8.65;;;4.50;;
27999;SDS011;15328;50.860;10.562;2024-02-28T18:48:45;7.63;;;4.00;;
27999;SDS011;15328;50.860;10.562;2024-02-28T18:53:45;6.22;;;4.00;;
27999;SDS011;15328;50.860;10.562;2024-02-28T18:58:46;5.70;;;3.75;;
27999;SDS011;15328;50.860;10.562;2024-02-28T19:03:46;7.72;;;3.90;;
27999;SDS011;15328;50.860;10.562;2024-02-28T19:08:47;8.25;;;4.28;;
27999;SDS011;15328;50.860;10.562;2024-02-28T19:13:49;7.82;;;4.22;;
27999;SDS011;15328;50.860;10.562;2024-02-28T19:18:50;8.98;;;5.25;;
27999;SDS011;15328;50.860;10.562;2024-02-28T19:23:50;9.85;;;4.90;;
27999;SDS011;15328;50.860;10.562;2024-02-28T19:28:51;10.37;;;4.70;;
27999;SDS011;15328;50.860;10.562;2024-02-28T19:33:51;8.95;;;4.78;;
27999;SDS011;15328;50.860;10.562;2024-02-28T19:38:51;6.03;;;3.50;;
27999;SDS011;15328;50.860;10.562;2024-02-28T19:43:52;6.28;;;3.90;;
27999;SDS011;15328;50.860;10.562;2024-02-28T19:48:53;6.85;;;3.80;;
27999;SDS011;15328;50.860;10.562;2024-02-28T19:53:53;7.38;;;4.10;;
27999;SDS011;15328;50.860;10.562;2024-02-28T19:58:53;7.67;;;3.70;;
27999;SDS011;15328;50.860;10.562;2024-02-28T20:03:54;9.30;;;3.90;;
27999;SDS011;15328;50.860;10.562;2024-02-28T20:08:55;6.30;;;3.67;;
27999;SDS011;15328;50.860;10.562;2024-02-28T20:13:55;6.20;;;3.63;;
27999;SDS011;15328;50.860;10.562;2024-02-28T20:18:55;5.72;;;3.47;;
27999;SDS011;15328;50.860;10.562;2024-02-28T20:23:56;5.78;;;3.10;;
27999;SDS011;15328;50.860;10.562;2024-02-28T20:28:56;6.15;;;3.60;;
27999;SDS011;15328;50.860;10.562;2024-02-28T20:33:57;7.95;;;3.47;;
27999;SDS011;15328;50.860;10.562;2024-02-28T20:38:59;5.70;;;3.08;;
27999;SDS011;15328;50.860;10.562;2024-02-28T20:44:00;5.65;;;3.00;;
27999;SDS011;15328;50.860;10.562;2024-02-28T20:49:02;4.35;;;2.45;;
27999;SDS011;15328;50.860;10.562;2024-02-28T20:54:02;4.85;;;2.97;;
27999;SDS011;15328;50.860;10.562;2024-02-28T20:59:04;5.20;;;3.05;;
27999;SDS011;15328;50.860;10.562;2024-02-28T21:04:04;4.10;;;2.58;;
27999;SDS011;15328;50.860;10.562;2024-02-28T21:09:05;4.32;;;2.67;;
27999;SDS011;15328;50.860;10.562;2024-02-28T21:14:07;7.55;;;3.17;;
27999;SDS011;15328;50.860;10.562;2024-02-28T21:19:07;8.38;;;4.00;;
27999;SDS011;15328;50.860;10.562;2024-02-28T21:24:08;6.25;;;3.78;;
27999;SDS011;15328;50.860;10.562;2024-02-28T21:29:11;8.23;;;3.55;;
27999;SDS011;15328;50.860;10.562;2024-02-28T21:34:11;7.13;;;4.20;;
27999;SDS011;15328;50.860;10.562;2024-02-28T21:39:12;6.97;;;3.33;;
27999;SDS011;15328;50.860;10.562;2024-02-28T21:44:13;6.00;;;3.47;;
27999;SDS011;15328;50.860;10.562;2024-02-28T21:49:13;7.55;;;3.97;;
27999;SDS011;15328;50.860;10.562;2024-02-28T21:54:14;5.90;;;3.50;;
27999;SDS011;15328;50.860;10.562;2024-02-28T21:59:14;6.13;;;3.53;;
27999;SDS011;15328;50.860;10.562;2024-02-28T22:04:14;6.32;;;3.63;;
27999;SDS011;15328;50.860;10.562;2024-02-28T22:09:15;6.88;;;3.58;;
27999;SDS011;15328;50.860;10.562;2024-02-28T22:14:15;7.90;;;3.90;;
27999;SDS011;15328;50.860;10.562;2024-02-28T22:19:16;8.65;;;3.70;;
27999;SDS011;15328;50.860;10.562;2024-02-28T22:24:16;6.38;;;3.70;;
27999;SDS011;15328;50.860;10.562;2024-02-28T22:29:17;7.43;;;4.35;;
27999;SDS011;15328;50.860;10.562;2024-02-28T22:34:19;6.95;;;3.88;;
27999;SDS011;15328;50.860;10.562;2024-02-28T22:39:19;7.30;;;3.70;;
27999;SDS011;15328;50.860;10.562;2024-02-28T22:44:19;6.55;;;3.70;;
27999;SDS011;15328;50.860;10.562;2024-02-28T22:49:20;6.43;;;3.57;;
27999;SDS011;15328;50.860;10.562;2024-02-28T22:54:20;6.35;;;3.67;;
27999;SDS011;15328;50.860;10.562;2024-02-28T22:59:22;7.38;;;3.78;;
27999;SDS011;15328;50.860;10.562;2024-02-28T23:04:23;5.97;;;3.30;;
27999;SDS011;15328;50.860;10.562;2024-02-28T23:09:23;6.93;;;3.53;;
27999;SDS011;15328;50.860;10.562;2024-02-28T23:14:23;6.63;;;3.53;;
27999;SDS011;15328;50.860;10.562;2024-02-28T23:19:24;6.55;;;3.25;;
27999;SDS011;15328;50.860;10.562;2024-02-28T23:24:24;8.30;;;3.20;;
27999;SDS011;15328;50.860;10.562;2024-02-28T23:29:24;6.03;;;3.17;;
27999;SDS011;15328;50.860;10.562;2024-02-28T23:34:25;5.07;;;2.78;;
27999;SDS011;15328;50.860;10.562;2024-02-28T23:39:25;6.10;;;3.37;;
27999;SDS011;15328;50.860;10.562;2024-02-28T23:44:25;5.03;;;2.88;;
27999;SDS011;15328;50.860;10.562;2024-02-28T23:49:25;5.57;;;3.30;;
27999;SDS011;15328;50.860;10.562;2024-02-28T23:54:26;5.38;;;3.13;;
27999;SDS011;15328;50.860;10.562;2024-02-28T23:59:27;5.65;;;2.80;;
